createdAt,value
2023-05-20T00:00:24.154Z,13.02
2023-05-20T00:01:46.899Z,13.01
2023-05-20T00:02:49.697Z,13.01
2023-05-20T00:03:52.887Z,13.01
2023-05-20T00:04:55.882Z,13.00
2023-05-20T00:05:58.657Z,13.00
2023-05-20T00:07:01.437Z,13.01
2023-05-20T00:08:07.354Z,13.02
2023-05-20T00:09:10.911Z,13.03
2023-05-20T00:10:13.804Z,13.00
2023-05-20T00:11:16.616Z,13.00
2023-05-20T00:12:19.405Z,12.98
2023-05-20T00:13:22.445Z,12.94
2023-05-20T00:14:25.409Z,12.94
2023-05-20T00:15:28.280Z,12.96
2023-05-20T00:16:31.033Z,12.96
2023-05-20T00:17:33.840Z,12.96
2023-05-20T00:18:36.565Z,12.96
2023-05-20T00:19:39.523Z,12.96
2023-05-20T00:20:42.240Z,12.96
2023-05-20T00:21:45.005Z,12.95
2023-05-20T00:22:47.733Z,12.93
2023-05-20T00:23:50.842Z,12.92
2023-05-20T00:24:53.919Z,12.93
2023-05-20T00:25:58.451Z,12.93
2023-05-20T00:27:03.485Z,12.94
2023-05-20T00:28:06.606Z,12.95
2023-05-20T00:29:10.337Z,12.96
2023-05-20T00:30:13.391Z,12.98
2023-05-20T00:31:16.125Z,12.97
2023-05-20T00:32:18.923Z,12.96
2023-05-20T00:33:21.651Z,12.95
2023-05-20T00:34:24.509Z,12.95
2023-05-20T00:35:27.447Z,12.97
2023-05-20T00:36:31.325Z,12.98
2023-05-20T00:37:34.085Z,12.99
2023-05-20T00:38:36.844Z,13.00
2023-05-20T00:39:39.688Z,13.02
2023-05-20T00:40:42.520Z,13.01
2023-05-20T00:41:45.380Z,13.00
2023-05-20T00:42:48.050Z,13.01
2023-05-20T00:43:54.772Z,13.02
2023-05-20T00:44:58.082Z,13.01
2023-05-20T00:46:01.868Z,13.02
2023-05-20T00:47:04.735Z,13.01
2023-05-20T00:48:07.988Z,12.99
2023-05-20T00:49:10.935Z,12.99
2023-05-20T00:50:13.949Z,12.97
2023-05-20T00:51:17.045Z,12.98
2023-05-20T00:52:19.827Z,12.98
2023-05-20T00:53:22.951Z,13.00
2023-05-20T00:54:25.868Z,12.99
2023-05-20T00:55:28.857Z,13.00
2023-05-20T00:56:31.835Z,13.01
2023-05-20T00:57:34.646Z,13.03
2023-05-20T00:58:38.093Z,13.05
2023-05-20T00:59:42.869Z,13.05
2023-05-20T01:00:47.661Z,13.05
2023-05-20T01:01:50.684Z,13.05
2023-05-20T01:02:55.492Z,13.03
2023-05-20T01:03:59.212Z,13.00
2023-05-20T01:05:02.275Z,13.00
2023-05-20T01:06:05.421Z,12.98
2023-05-20T01:07:08.191Z,12.98
2023-05-20T01:08:10.958Z,12.97
2023-05-20T01:09:13.762Z,12.96
2023-05-20T01:10:16.646Z,12.95
2023-05-20T01:11:19.396Z,12.96
2023-05-20T01:12:30.476Z,12.98
2023-05-20T01:13:39.221Z,13.00
2023-05-20T01:14:57.236Z,13.02
2023-05-20T01:16:01.513Z,13.04
2023-05-20T01:17:09.705Z,13.06
2023-05-20T01:18:18.534Z,13.07
2023-05-20T01:19:34.066Z,13.08
2023-05-20T01:20:37.914Z,13.07
2023-05-20T01:21:41.473Z,13.08
2023-05-20T01:22:49.112Z,13.09
2023-05-20T01:23:52.393Z,13.12
2023-05-20T01:24:55.439Z,13.12
2023-05-20T01:25:58.233Z,13.13
2023-05-20T01:27:00.967Z,13.15
2023-05-20T01:28:04.008Z,13.16
2023-05-20T01:29:06.720Z,13.12
2023-05-20T01:30:09.890Z,13.13
2023-05-20T01:31:33.797Z,13.15
2023-05-20T01:32:41.365Z,13.14
2023-05-20T01:33:44.971Z,13.16
2023-05-20T01:34:49.961Z,13.16
2023-05-20T01:35:53.158Z,13.16
2023-05-20T01:36:56.375Z,13.16
2023-05-20T01:38:00.183Z,13.15
2023-05-20T01:39:03.504Z,13.16
2023-05-20T01:40:14.059Z,13.16
2023-05-20T01:41:17.374Z,13.15
2023-05-20T01:42:21.058Z,13.16
2023-05-20T01:43:24.624Z,13.17
2023-05-20T01:44:27.561Z,13.20
2023-05-20T01:45:31.288Z,13.22
2023-05-20T01:46:35.466Z,13.24
2023-05-20T01:47:38.698Z,13.24
2023-05-20T01:48:41.454Z,13.18
2023-05-20T01:49:46.366Z,13.18
2023-05-20T01:50:49.194Z,13.19
2023-05-20T01:51:52.942Z,13.21
2023-05-20T01:52:55.670Z,13.22
2023-05-20T01:53:58.715Z,13.22
2023-05-20T01:55:01.520Z,13.24
2023-05-20T01:56:05.438Z,13.25
2023-05-20T01:57:08.244Z,13.25
2023-05-20T01:58:11.071Z,13.24
2023-05-20T01:59:14.119Z,13.24
2023-05-20T02:00:17.070Z,13.26
2023-05-20T02:01:20.953Z,13.26
2023-05-20T02:02:23.938Z,13.27
2023-05-20T02:03:26.994Z,13.28
2023-05-20T02:04:30.797Z,13.26
2023-05-20T02:05:33.959Z,13.25
2023-05-20T02:06:37.066Z,13.25
2023-05-20T02:07:39.874Z,13.26
2023-05-20T02:08:42.604Z,13.26
2023-05-20T02:09:45.850Z,13.24
2023-05-20T02:10:49.395Z,13.25
2023-05-20T02:11:52.085Z,13.26
2023-05-20T02:12:54.785Z,13.27
2023-05-20T02:13:57.501Z,13.27
2023-05-20T02:15:00.390Z,13.28
2023-05-20T02:16:03.325Z,13.29
2023-05-20T02:17:06.041Z,13.28
2023-05-20T02:18:08.892Z,13.31
2023-05-20T02:19:12.889Z,13.30
2023-05-20T02:20:16.350Z,13.29
2023-05-20T02:21:19.140Z,13.31
2023-05-20T02:22:21.820Z,13.32
2023-05-20T02:23:24.552Z,13.32
2023-05-20T02:24:27.402Z,13.31
2023-05-20T02:25:30.104Z,13.32
2023-05-20T02:26:33.075Z,13.31
2023-05-20T02:27:37.036Z,13.34
2023-05-20T02:28:43.619Z,13.34
2023-05-20T02:29:46.501Z,13.35
2023-05-20T02:30:51.733Z,13.37
2023-05-20T02:31:54.440Z,13.38
2023-05-20T02:32:57.944Z,13.40
2023-05-20T02:34:01.202Z,13.39
2023-05-20T02:35:05.037Z,13.41
2023-05-20T02:36:08.115Z,13.40
2023-05-20T02:37:10.953Z,13.41
2023-05-20T02:38:13.762Z,13.41
2023-05-20T02:39:17.008Z,13.41
2023-05-20T02:40:19.791Z,13.41
2023-05-20T02:41:23.202Z,13.41
2023-05-20T02:42:26.004Z,13.42
2023-05-20T02:43:28.688Z,13.43
2023-05-20T02:44:31.519Z,13.43
2023-05-20T02:45:34.659Z,13.44
2023-05-20T02:46:37.536Z,13.43
2023-05-20T02:47:41.303Z,13.43
2023-05-20T02:48:44.081Z,13.43
2023-05-20T02:49:47.139Z,13.43
2023-05-20T02:50:49.919Z,13.43
2023-05-20T02:51:52.718Z,13.43
2023-05-20T02:52:55.916Z,13.43
2023-05-20T02:53:58.999Z,13.41
2023-05-20T02:55:02.098Z,13.35
2023-05-20T02:56:05.856Z,13.35
2023-05-20T02:57:08.679Z,13.36
2023-05-20T02:58:13.370Z,13.37
2023-05-20T02:59:16.267Z,13.39
2023-05-20T03:00:19.238Z,13.40
2023-05-20T03:01:22.021Z,13.40
2023-05-20T03:02:25.395Z,13.39
2023-05-20T03:03:28.349Z,13.38
2023-05-20T03:04:31.749Z,13.36
2023-05-20T03:05:37.982Z,13.38
2023-05-20T03:06:44.408Z,13.40
2023-05-20T03:07:48.902Z,13.41
2023-05-20T03:08:51.726Z,13.43
2023-05-20T03:09:54.445Z,13.44
2023-05-20T03:10:57.288Z,13.44
2023-05-20T03:12:00.045Z,13.41
2023-05-20T03:13:03.117Z,13.41
2023-05-20T03:14:05.866Z,13.44
2023-05-20T03:15:09.447Z,13.45
2023-05-20T03:16:13.245Z,13.45
2023-05-20T03:17:16.172Z,13.47
2023-05-20T03:18:19.206Z,13.48
2023-05-20T03:19:22.199Z,13.49
2023-05-20T03:20:27.053Z,13.49
2023-05-20T03:21:30.702Z,13.50
2023-05-20T03:22:33.635Z,13.52
2023-05-20T03:23:36.385Z,13.52
2023-05-20T03:24:39.133Z,13.51
2023-05-20T03:25:42.718Z,13.53
2023-05-20T03:26:46.550Z,13.54
2023-05-20T03:27:49.428Z,13.54
2023-05-20T03:28:52.376Z,13.54
2023-05-20T03:29:55.219Z,13.55
2023-05-20T03:30:58.203Z,13.57
2023-05-20T03:32:01.144Z,13.58
2023-05-20T03:33:05.914Z,13.57
2023-05-20T03:34:08.798Z,13.58
2023-05-20T03:35:12.031Z,13.59
2023-05-20T03:36:14.786Z,13.60
2023-05-20T03:37:17.715Z,13.60
2023-05-20T03:38:20.628Z,13.61
2023-05-20T03:39:23.390Z,13.63
2023-05-20T03:40:26.203Z,13.64
2023-05-20T03:41:29.257Z,13.60
2023-05-20T03:42:35.257Z,13.59
2023-05-20T03:43:37.957Z,13.57
2023-05-20T03:44:41.602Z,13.58
2023-05-20T03:45:44.462Z,13.58
2023-05-20T03:46:47.230Z,13.57
2023-05-20T03:47:50.508Z,13.58
2023-05-20T03:48:53.475Z,13.60
2023-05-20T03:49:56.324Z,13.62
2023-05-20T03:50:59.503Z,13.62
2023-05-20T03:52:03.522Z,13.63
2023-05-20T03:53:06.591Z,13.66
2023-05-20T03:54:13.827Z,13.66
2023-05-20T03:55:17.117Z,13.66
2023-05-20T03:56:19.973Z,13.67
2023-05-20T03:57:23.085Z,13.67
2023-05-20T03:58:26.393Z,13.69
2023-05-20T03:59:29.499Z,13.73
2023-05-20T04:00:32.290Z,13.74
2023-05-20T04:01:35.874Z,13.72
2023-05-20T04:02:38.907Z,13.73
2023-05-20T04:03:42.686Z,13.69
2023-05-20T04:04:45.631Z,13.69
2023-05-20T04:05:49.574Z,13.71
2023-05-20T04:06:56.282Z,13.73
2023-05-20T04:08:00.485Z,13.75
2023-05-20T04:09:03.991Z,13.77
2023-05-20T04:10:08.482Z,13.79
2023-05-20T04:11:11.393Z,13.81
2023-05-20T04:12:14.189Z,13.84
2023-05-20T04:13:17.310Z,13.86
2023-05-20T04:14:20.146Z,13.89
2023-05-20T04:15:24.018Z,13.90
2023-05-20T04:16:31.104Z,13.93
2023-05-20T04:17:34.022Z,13.96
2023-05-20T04:18:39.178Z,13.99
2023-05-20T04:19:42.697Z,13.99
2023-05-20T04:20:46.489Z,13.98
2023-05-20T04:21:49.903Z,13.99
2023-05-20T04:22:54.078Z,14.00
2023-05-20T04:23:57.345Z,14.02
2023-05-20T04:25:00.893Z,14.04
2023-05-20T04:26:03.811Z,14.06
2023-05-20T04:27:08.074Z,14.09
2023-05-20T04:28:14.126Z,14.11
2023-05-20T04:29:16.887Z,14.15
2023-05-20T04:30:21.753Z,14.17
2023-05-20T04:31:27.007Z,14.19
2023-05-20T04:32:30.314Z,14.22
2023-05-20T04:33:37.942Z,14.25
2023-05-20T04:34:40.939Z,14.28
2023-05-20T04:35:44.319Z,14.30
2023-05-20T04:36:47.232Z,14.33
2023-05-20T04:37:50.822Z,14.37
2023-05-20T04:38:53.974Z,14.40
2023-05-20T04:39:56.894Z,14.40
2023-05-20T04:40:59.883Z,14.40
2023-05-20T04:42:03.513Z,14.42
2023-05-20T04:43:06.282Z,14.43
2023-05-20T04:44:09.600Z,14.45
2023-05-20T04:45:12.538Z,14.47
2023-05-20T04:46:16.610Z,14.49
2023-05-20T04:47:19.418Z,14.48
2023-05-20T04:48:22.429Z,14.50
2023-05-20T04:49:29.118Z,14.51
2023-05-20T04:50:31.921Z,14.53
2023-05-20T04:51:35.450Z,14.56
2023-05-20T04:52:43.085Z,14.57
2023-05-20T04:53:47.150Z,14.57
2023-05-20T04:54:51.083Z,14.57
2023-05-20T04:55:57.289Z,14.58
2023-05-20T04:57:00.592Z,14.57
2023-05-20T04:58:04.028Z,14.58
2023-05-20T04:59:06.868Z,14.56
2023-05-20T05:00:10.713Z,14.53
2023-05-20T05:01:13.523Z,14.50
2023-05-20T05:02:17.845Z,14.46
2023-05-20T05:03:20.697Z,14.47
2023-05-20T05:04:24.015Z,14.44
2023-05-20T05:05:26.904Z,14.44
2023-05-20T05:06:29.819Z,14.46
2023-05-20T05:07:34.620Z,14.45
2023-05-20T05:08:37.349Z,14.46
2023-05-20T05:09:40.032Z,14.48
2023-05-20T05:10:42.752Z,14.49
2023-05-20T05:11:45.612Z,14.51
2023-05-20T05:12:48.622Z,14.52
2023-05-20T05:13:52.270Z,14.53
2023-05-20T05:14:58.688Z,14.53
2023-05-20T05:16:02.544Z,14.55
2023-05-20T05:17:06.223Z,14.57
2023-05-20T05:18:09.600Z,14.58
2023-05-20T05:19:13.679Z,14.57
2023-05-20T05:20:17.089Z,14.57
2023-05-20T05:21:19.806Z,14.56
2023-05-20T05:22:22.961Z,14.57
2023-05-20T05:23:25.926Z,14.59
2023-05-20T05:24:29.988Z,14.61
2023-05-20T05:25:33.591Z,14.60
2023-05-20T05:26:36.388Z,14.62
2023-05-20T05:27:39.680Z,14.65
2023-05-20T05:28:45.863Z,14.66
2023-05-20T05:29:49.368Z,14.66
2023-05-20T05:30:53.989Z,14.68
2023-05-20T05:31:56.761Z,14.65
2023-05-20T05:32:59.641Z,14.65
2023-05-20T05:34:02.530Z,14.68
2023-05-20T05:35:07.468Z,14.69
2023-05-20T05:36:11.083Z,14.69
2023-05-20T05:37:13.833Z,14.70
2023-05-20T05:38:16.836Z,14.69
2023-05-20T05:39:19.777Z,14.70
2023-05-20T05:40:23.284Z,14.72
2023-05-20T05:41:26.082Z,14.75
2023-05-20T05:42:28.848Z,14.79
2023-05-20T05:43:31.786Z,14.81
2023-05-20T05:44:35.783Z,14.83
2023-05-20T05:45:39.323Z,14.85
2023-05-20T05:46:42.080Z,14.85
2023-05-20T05:47:46.008Z,14.88
2023-05-20T05:48:50.852Z,14.91
2023-05-20T05:49:53.723Z,14.95
2023-05-20T05:50:56.676Z,14.97
2023-05-20T05:51:59.678Z,14.97
2023-05-20T05:53:02.464Z,14.97
2023-05-20T05:54:06.091Z,14.98
2023-05-20T05:55:09.780Z,15.00
2023-05-20T05:56:12.756Z,15.01
2023-05-20T05:57:15.961Z,15.01
2023-05-20T05:58:18.712Z,15.02
2023-05-20T05:59:24.857Z,15.02
2023-05-20T06:00:28.900Z,15.04
2023-05-20T06:01:31.721Z,15.05
2023-05-20T06:02:36.407Z,15.08
2023-05-20T06:03:39.571Z,15.08
2023-05-20T06:04:42.701Z,15.11
2023-05-20T06:05:46.222Z,15.12
2023-05-20T06:06:49.460Z,15.12
2023-05-20T06:07:52.310Z,15.11
2023-05-20T06:08:56.067Z,15.13
2023-05-20T06:09:59.528Z,15.15
2023-05-20T06:11:02.584Z,15.17
2023-05-20T06:12:07.066Z,15.18
2023-05-20T06:13:10.014Z,15.18
2023-05-20T06:14:13.191Z,15.19
2023-05-20T06:15:16.223Z,15.20
2023-05-20T06:16:19.205Z,15.22
2023-05-20T06:17:22.046Z,15.23
2023-05-20T06:18:25.128Z,15.26
2023-05-20T06:19:31.775Z,15.27
2023-05-20T06:20:34.635Z,15.28
2023-05-20T06:21:38.530Z,15.28
2023-05-20T06:22:41.286Z,15.29
2023-05-20T06:23:44.083Z,15.30
2023-05-20T06:24:48.789Z,15.27
2023-05-20T06:25:51.857Z,15.25
2023-05-20T06:26:55.161Z,15.21
2023-05-20T06:27:57.902Z,15.20
2023-05-20T06:29:00.844Z,15.19
2023-05-20T06:30:03.870Z,15.17
2023-05-20T06:31:06.762Z,15.16
2023-05-20T06:32:10.868Z,15.15
2023-05-20T06:33:14.174Z,15.17
2023-05-20T06:34:17.418Z,15.18
2023-05-20T06:35:20.353Z,15.22
2023-05-20T06:36:23.095Z,15.25
2023-05-20T06:37:26.004Z,15.28
2023-05-20T06:38:29.552Z,15.31
2023-05-20T06:39:32.337Z,15.34
2023-05-20T06:40:35.069Z,15.34
2023-05-20T06:41:40.697Z,15.37
2023-05-20T06:42:45.901Z,15.38
2023-05-20T06:43:51.183Z,15.40
2023-05-20T06:45:14.086Z,15.45
2023-05-20T06:46:26.121Z,15.48
2023-05-20T06:47:37.764Z,15.51
2023-05-20T06:48:40.783Z,15.55
2023-05-20T06:49:46.504Z,15.53
2023-05-20T06:50:50.188Z,15.53
2023-05-20T06:51:53.085Z,15.53
2023-05-20T06:52:55.981Z,15.54
2023-05-20T06:53:58.774Z,15.55
2023-05-20T06:55:02.082Z,15.55
2023-05-20T06:56:05.552Z,15.55
2023-05-20T06:57:09.013Z,15.55
2023-05-20T06:58:11.861Z,15.56
2023-05-20T06:59:15.317Z,15.54
2023-05-20T07:00:19.110Z,15.56
2023-05-20T07:01:21.949Z,15.60
2023-05-20T07:02:25.251Z,15.63
2023-05-20T07:03:28.046Z,15.66
2023-05-20T07:04:30.893Z,15.72
2023-05-20T07:05:34.177Z,15.78
2023-05-20T07:06:37.293Z,15.84
2023-05-20T07:07:40.193Z,15.89
2023-05-20T07:08:43.040Z,15.95
2023-05-20T07:09:45.945Z,16.01
2023-05-20T07:10:48.722Z,16.08
2023-05-20T07:11:54.938Z,16.16
2023-05-20T07:12:57.830Z,16.20
2023-05-20T07:14:01.338Z,16.24
2023-05-20T07:15:06.153Z,16.27
2023-05-20T07:16:09.831Z,16.32
2023-05-20T07:17:15.916Z,16.36
2023-05-20T07:18:21.588Z,16.42
2023-05-20T07:19:28.536Z,16.44
2023-05-20T07:20:31.404Z,16.44
2023-05-20T07:21:37.571Z,16.47
2023-05-20T07:23:02.689Z,16.51
2023-05-20T07:24:16.575Z,16.55
2023-05-20T07:25:19.566Z,16.58
2023-05-20T07:26:22.505Z,16.61
2023-05-20T07:27:25.287Z,16.65
2023-05-20T07:28:28.075Z,16.71
2023-05-20T07:29:31.348Z,16.75
2023-05-20T07:30:34.316Z,16.80
2023-05-20T07:31:53.762Z,16.85
2023-05-20T07:32:56.830Z,16.88
2023-05-20T07:33:59.763Z,16.90
2023-05-20T07:35:02.588Z,16.91
2023-05-20T07:36:05.972Z,16.93
2023-05-20T07:37:10.167Z,16.94
2023-05-20T07:38:13.597Z,16.96
2023-05-20T07:39:16.981Z,16.97
2023-05-20T07:40:20.095Z,16.97
2023-05-20T07:41:23.166Z,17.00
2023-05-20T07:42:26.442Z,17.02
2023-05-20T07:43:33.821Z,17.04
2023-05-20T07:44:38.943Z,17.07
2023-05-20T07:45:42.477Z,17.10
2023-05-20T07:46:45.408Z,17.14
2023-05-20T07:47:48.344Z,17.17
2023-05-20T07:48:51.095Z,17.20
2023-05-20T07:49:53.905Z,17.20
2023-05-20T07:50:59.504Z,17.22
2023-05-20T07:52:04.437Z,17.23
2023-05-20T07:53:08.229Z,17.25
2023-05-20T07:54:12.161Z,17.27
2023-05-20T07:55:15.751Z,17.30
2023-05-20T07:56:19.166Z,17.34
2023-05-20T07:57:23.606Z,17.38
2023-05-20T07:58:28.007Z,17.38
2023-05-20T07:59:31.729Z,17.41
2023-05-20T08:00:34.891Z,17.44
2023-05-20T08:01:41.787Z,17.47
2023-05-20T08:02:45.464Z,17.48
2023-05-20T08:03:51.220Z,17.49
2023-05-20T08:04:57.576Z,17.52
2023-05-20T08:06:00.841Z,17.55
2023-05-20T08:07:04.141Z,17.57
2023-05-20T08:08:17.268Z,17.57
2023-05-20T08:09:28.390Z,17.58
2023-05-20T08:10:31.653Z,17.56
2023-05-20T08:11:34.804Z,17.55
2023-05-20T08:12:38.217Z,17.55
2023-05-20T08:13:41.746Z,17.56
2023-05-20T08:14:45.566Z,17.58
2023-05-20T08:15:48.838Z,17.60
2023-05-20T08:16:54.623Z,17.63
2023-05-20T08:17:58.386Z,17.65
2023-05-20T08:19:01.329Z,17.66
2023-05-20T08:20:04.863Z,17.68
2023-05-20T08:21:08.369Z,17.73
2023-05-20T08:22:13.076Z,17.76
2023-05-20T08:23:16.325Z,17.78
2023-05-20T08:24:19.348Z,17.82
2023-05-20T08:25:23.885Z,17.88
2023-05-20T08:26:26.988Z,17.92
2023-05-20T08:27:29.848Z,17.95
2023-05-20T08:28:33.070Z,17.96
2023-05-20T08:29:36.262Z,17.95
2023-05-20T08:30:39.916Z,17.89
2023-05-20T08:31:42.904Z,17.80
2023-05-20T08:32:46.206Z,17.67
2023-05-20T08:33:49.222Z,17.51
2023-05-20T08:34:51.993Z,17.34
2023-05-20T08:35:54.815Z,17.18
2023-05-20T08:36:57.847Z,17.05
2023-05-20T08:38:02.128Z,16.94
2023-05-20T08:39:05.037Z,16.83
2023-05-20T08:40:09.812Z,16.73
2023-05-20T08:41:12.809Z,16.65
2023-05-20T08:42:20.056Z,16.61
2023-05-20T08:43:23.472Z,16.61
2023-05-20T08:44:28.081Z,16.64
2023-05-20T08:45:34.846Z,16.72
2023-05-20T08:46:41.536Z,16.85
2023-05-20T08:47:44.568Z,16.95
2023-05-20T08:48:48.007Z,17.05
2023-05-20T08:49:50.673Z,17.13
2023-05-20T08:50:53.722Z,17.19
2023-05-20T08:51:56.498Z,17.23
2023-05-20T08:52:59.620Z,17.27
2023-05-20T08:54:02.755Z,17.29
2023-05-20T08:55:07.927Z,17.32
2023-05-20T08:56:11.619Z,17.36
2023-05-20T08:57:14.374Z,17.41
2023-05-20T08:58:19.348Z,17.45
2023-05-20T08:59:22.339Z,17.49
2023-05-20T09:00:28.929Z,17.51
2023-05-20T09:01:32.390Z,17.53
2023-05-20T09:02:41.199Z,17.53
2023-05-20T09:03:44.554Z,17.54
2023-05-20T09:04:47.385Z,17.55
2023-05-20T09:05:50.294Z,17.57
2023-05-20T09:06:53.238Z,17.57
2023-05-20T09:08:09.774Z,17.59
2023-05-20T09:09:13.289Z,17.62
2023-05-20T09:10:16.565Z,17.66
2023-05-20T09:11:20.115Z,17.68
2023-05-20T09:12:23.013Z,17.70
2023-05-20T09:13:27.010Z,17.75
2023-05-20T09:14:30.722Z,17.80
2023-05-20T09:15:34.448Z,17.85
2023-05-20T09:16:39.734Z,17.91
2023-05-20T09:17:42.574Z,17.96
2023-05-20T09:18:46.344Z,17.99
2023-05-20T09:19:53.217Z,17.99
2023-05-20T09:20:56.612Z,17.94
2023-05-20T09:21:59.499Z,17.87
2023-05-20T09:23:03.033Z,17.80
2023-05-20T09:24:05.934Z,17.72
2023-05-20T09:25:09.518Z,17.66
2023-05-20T09:26:12.578Z,17.61
2023-05-20T09:27:16.080Z,17.56
2023-05-20T09:28:24.187Z,17.50
2023-05-20T09:29:27.038Z,17.46
2023-05-20T09:30:29.772Z,17.43
2023-05-20T09:31:34.171Z,17.40
2023-05-20T09:32:38.358Z,17.37
2023-05-20T09:33:41.429Z,17.38
2023-05-20T09:34:46.526Z,17.38
2023-05-20T09:35:49.475Z,17.32
2023-05-20T09:36:53.010Z,17.28
2023-05-20T09:37:56.884Z,17.32
2023-05-20T09:39:03.256Z,17.33
2023-05-20T09:40:09.877Z,17.31
2023-05-20T09:41:13.786Z,17.31
2023-05-20T09:42:21.093Z,17.34
2023-05-20T09:43:23.843Z,17.36
2023-05-20T09:44:28.893Z,17.36
2023-05-20T09:45:31.673Z,17.39
2023-05-20T09:46:34.777Z,17.42
2023-05-20T09:47:41.626Z,17.47
2023-05-20T09:48:44.728Z,17.53
2023-05-20T09:49:48.181Z,17.53
2023-05-20T09:50:51.873Z,17.53
2023-05-20T09:51:54.714Z,17.52
2023-05-20T09:53:01.839Z,17.50
2023-05-20T09:54:04.943Z,17.48
2023-05-20T09:55:10.410Z,17.48
2023-05-20T09:56:13.494Z,17.44
2023-05-20T09:57:16.358Z,17.41
2023-05-20T09:58:20.417Z,17.38
2023-05-20T09:59:23.687Z,17.37
2023-05-20T10:00:26.634Z,17.38
2023-05-20T10:01:29.637Z,17.38
2023-05-20T10:02:33.780Z,17.36
2023-05-20T10:03:37.040Z,17.28
2023-05-20T10:04:45.190Z,17.23
2023-05-20T10:06:10.795Z,17.23
2023-05-20T10:07:16.320Z,17.26
2023-05-20T10:08:28.068Z,17.26
2023-05-20T10:09:42.999Z,17.23
2023-05-20T10:10:45.960Z,17.14
2023-05-20T10:11:57.514Z,17.06
2023-05-20T10:13:00.302Z,17.00
2023-05-20T10:14:21.962Z,16.98
2023-05-20T10:15:43.605Z,17.02
2023-05-20T10:17:09.067Z,17.07
2023-05-20T10:18:14.670Z,17.17
2023-05-20T10:19:29.152Z,17.21
2023-05-20T10:20:32.062Z,17.22
2023-05-20T10:21:35.137Z,17.24
2023-05-20T10:22:38.008Z,17.24
2023-05-20T10:23:40.868Z,17.24
2023-05-20T10:24:44.324Z,17.25
2023-05-20T10:25:53.549Z,17.26
2023-05-20T10:26:57.658Z,17.27
2023-05-20T10:28:05.196Z,17.28
2023-05-20T10:29:18.155Z,17.28
2023-05-20T10:30:22.422Z,17.29
2023-05-20T10:31:25.812Z,17.27
2023-05-20T10:32:28.957Z,17.26
2023-05-20T10:33:41.343Z,17.25
2023-05-20T10:34:45.289Z,17.23
2023-05-20T10:35:50.568Z,17.19
2023-05-20T10:36:56.006Z,17.14
2023-05-20T10:38:10.420Z,17.09
2023-05-20T10:39:19.232Z,17.05
2023-05-20T10:40:22.736Z,17.03
2023-05-20T10:41:27.101Z,17.01
2023-05-20T10:42:32.518Z,17.01
2023-05-20T10:43:35.429Z,16.99
2023-05-20T10:44:45.136Z,16.98
2023-05-20T10:45:49.437Z,16.94
2023-05-20T10:47:23.606Z,16.92
2023-05-20T10:48:29.204Z,16.89
2023-05-20T10:49:34.039Z,16.87
2023-05-20T10:50:37.663Z,16.86
2023-05-20T10:51:41.918Z,16.84
2023-05-20T10:52:44.711Z,16.81
2023-05-20T10:53:47.742Z,16.81
2023-05-20T10:54:53.484Z,16.81
2023-05-20T10:55:56.666Z,16.80
2023-05-20T10:56:59.399Z,16.80
2023-05-20T10:58:02.075Z,16.80
2023-05-20T10:59:04.785Z,16.79
2023-05-20T11:00:10.806Z,16.81
2023-05-20T11:01:14.229Z,16.85
2023-05-20T11:02:17.321Z,16.88
2023-05-20T11:03:22.116Z,16.90
2023-05-20T11:04:24.952Z,16.90
2023-05-20T11:05:28.507Z,16.90
2023-05-20T11:06:31.651Z,16.93
2023-05-20T11:07:34.496Z,16.97
2023-05-20T11:08:37.236Z,17.03
2023-05-20T11:09:40.002Z,17.10
2023-05-20T11:10:43.444Z,17.16
2023-05-20T11:11:46.708Z,17.23
2023-05-20T11:12:49.582Z,17.31
2023-05-20T11:13:53.093Z,17.40
2023-05-20T11:14:56.043Z,17.50
2023-05-20T11:15:59.218Z,17.63
2023-05-20T11:17:02.102Z,17.76
2023-05-20T11:18:05.002Z,17.89
2023-05-20T11:19:08.769Z,18.02
2023-05-20T11:20:14.498Z,18.13
2023-05-20T11:21:18.133Z,18.21
2023-05-20T11:22:20.966Z,18.32
2023-05-20T11:23:23.796Z,18.40
2023-05-20T11:24:27.348Z,18.45
2023-05-20T11:25:30.177Z,18.45
2023-05-20T11:26:33.419Z,18.40
2023-05-20T11:27:39.132Z,18.36
2023-05-20T11:28:42.033Z,18.36
2023-05-20T11:29:45.005Z,18.37
2023-05-20T11:30:48.448Z,18.39
2023-05-20T11:31:52.198Z,18.41
2023-05-20T11:33:02.115Z,18.41
2023-05-20T11:34:04.894Z,18.46
2023-05-20T11:35:08.118Z,18.53
2023-05-20T11:36:26.364Z,18.59
2023-05-20T11:37:30.066Z,18.67
2023-05-20T11:38:32.832Z,18.77
2023-05-20T11:39:35.578Z,18.88
2023-05-20T11:40:50.550Z,18.98
2023-05-20T11:41:54.178Z,19.06
2023-05-20T11:43:03.971Z,19.18
2023-05-20T11:44:09.642Z,19.30
2023-05-20T11:45:13.707Z,19.34
2023-05-20T11:46:16.561Z,19.37
2023-05-20T11:47:24.737Z,19.43
2023-05-20T11:48:27.675Z,19.50
2023-05-20T11:49:31.007Z,19.58
2023-05-20T11:50:35.992Z,19.66
2023-05-20T11:51:39.712Z,19.75
2023-05-20T11:52:42.456Z,19.83
2023-05-20T11:53:46.909Z,19.90
2023-05-20T11:54:53.525Z,20.00
2023-05-20T11:55:57.609Z,20.07
2023-05-20T11:57:00.624Z,20.10
2023-05-20T11:58:03.461Z,20.10
2023-05-20T11:59:06.680Z,20.12
2023-05-20T12:00:10.848Z,20.10
2023-05-20T12:01:21.804Z,20.08
2023-05-20T12:02:26.056Z,20.06
2023-05-20T12:03:28.981Z,20.03
2023-05-20T12:04:31.889Z,20.03
2023-05-20T12:05:34.877Z,19.98
2023-05-20T12:06:37.687Z,19.91
2023-05-20T12:07:40.471Z,19.85
2023-05-20T12:08:43.221Z,19.82
2023-05-20T12:09:45.962Z,19.79
2023-05-20T12:10:49.104Z,19.71
2023-05-20T12:11:51.996Z,19.60
2023-05-20T12:12:54.738Z,19.44
2023-05-20T12:13:57.516Z,19.33
2023-05-20T12:15:00.275Z,19.21
2023-05-20T12:16:04.240Z,19.07
2023-05-20T12:17:07.464Z,18.97
2023-05-20T12:18:11.350Z,18.85
2023-05-20T12:19:14.228Z,18.73
2023-05-20T12:20:17.952Z,18.62
2023-05-20T12:21:20.939Z,18.54
2023-05-20T12:22:23.638Z,18.47
2023-05-20T12:23:26.621Z,18.39
2023-05-20T12:24:29.323Z,18.34
2023-05-20T12:25:32.201Z,18.26
2023-05-20T12:26:35.624Z,18.19
2023-05-20T12:27:38.885Z,18.15
2023-05-20T12:28:41.643Z,18.11
2023-05-20T12:29:44.401Z,18.02
2023-05-20T12:30:47.208Z,17.93
2023-05-20T12:31:51.033Z,17.84
2023-05-20T12:32:54.106Z,17.74
2023-05-20T12:33:56.949Z,17.68
2023-05-20T12:34:59.864Z,17.63
2023-05-20T12:36:02.717Z,17.57
2023-05-20T12:37:06.144Z,17.54
2023-05-20T12:38:09.346Z,17.53
2023-05-20T12:39:12.497Z,17.45
2023-05-20T12:40:15.284Z,17.36
2023-05-20T12:41:18.032Z,17.26
2023-05-20T12:42:20.799Z,17.20
2023-05-20T12:43:23.550Z,17.16
2023-05-20T12:44:26.718Z,17.09
2023-05-20T12:45:29.505Z,17.04
2023-05-20T12:46:32.284Z,17.00
2023-05-20T12:47:35.559Z,16.97
2023-05-20T12:48:39.950Z,16.91
2023-05-20T12:49:43.922Z,16.86
2023-05-20T12:50:46.630Z,16.84
2023-05-20T12:51:49.769Z,16.83
2023-05-20T12:52:53.209Z,16.81
2023-05-20T12:53:56.246Z,16.76
2023-05-20T12:54:58.991Z,16.73
2023-05-20T12:56:01.817Z,16.71
2023-05-20T12:57:05.789Z,16.69
2023-05-20T12:58:08.953Z,16.69
2023-05-20T12:59:11.636Z,16.69
2023-05-20T13:00:14.650Z,16.65
2023-05-20T13:01:17.423Z,16.64
2023-05-20T13:02:20.866Z,16.63
2023-05-20T13:03:23.911Z,16.62
2023-05-20T13:04:26.712Z,16.59
2023-05-20T13:05:29.456Z,16.58
2023-05-20T13:06:32.507Z,16.53
2023-05-20T13:07:35.256Z,16.50
2023-05-20T13:08:38.251Z,16.48
2023-05-20T13:09:41.036Z,16.46
2023-05-20T13:10:43.902Z,16.45
2023-05-20T13:11:46.607Z,16.45
2023-05-20T13:12:49.400Z,16.43
2023-05-20T13:13:54.074Z,16.40
2023-05-20T13:14:56.821Z,16.38
2023-05-20T13:15:59.488Z,16.36
2023-05-20T13:17:02.445Z,16.35
2023-05-20T13:18:07.162Z,16.35
2023-05-20T13:19:10.106Z,16.36
2023-05-20T13:20:13.160Z,16.35
2023-05-20T13:21:16.551Z,16.34
2023-05-20T13:22:19.542Z,16.36
2023-05-20T13:23:22.320Z,16.35
2023-05-20T13:24:25.881Z,16.33
2023-05-20T13:25:29.126Z,16.32
2023-05-20T13:26:31.854Z,16.33
2023-05-20T13:27:34.587Z,16.33
2023-05-20T13:28:37.301Z,16.35
2023-05-20T13:29:40.135Z,16.38
2023-05-20T13:30:42.867Z,16.45
2023-05-20T13:31:46.864Z,16.51
2023-05-20T13:32:49.570Z,16.64
2023-05-20T13:33:53.453Z,16.85
2023-05-20T13:34:57.100Z,17.11
2023-05-20T13:36:00.008Z,17.47
2023-05-20T13:37:02.742Z,17.90
2023-05-20T13:38:05.587Z,18.30
2023-05-20T13:39:08.436Z,18.68
2023-05-20T13:40:11.693Z,18.98
2023-05-20T13:41:14.533Z,19.29
2023-05-20T13:42:17.345Z,19.51
2023-05-20T13:43:20.058Z,19.67
2023-05-20T13:44:22.807Z,19.75
2023-05-20T13:45:25.753Z,19.82